Estevan Point, Canada
Current Conditions -  °F | °C
As of 1:00 PM on Saturday 20 Dec 2014 (Local Time) from CYAZ Reporting Station
Light Rain Light Rain  
Wind Chill: 42°   Ceiling: 700
Heat Index: 48°   Visibility: 2mi
Dew Point: 48°   Wind: 15mph
Humidity: 100%   Direction: 120°ESE
Pressure: 29.31"   Gusts: 26mph
Location:  49.38°N, 126.54°W
Report Text: CYAZ 202100Z 12013G23KT 2SM -RA BR BKN007 OVC012 09/09 A2931 RMK SF6SC2 PRESFR SLP926 DENSITY ALT 100FT
Loading
Personal Weather Stations






























Interactive Weather Map New forecast layout! Learn more

10-Day Weather Forecast

Advertisements
Track Severe Weather on mobile